Terminal Aerodrome Forecast
Issued by NWS Jackson, KY

Home | Current Version | Previous Version | Text Only | Print | Product List | Glossary On
Versions: 1 2 3 4 5 6 7 8 9 10 11 12 13 14 15 16 17
000
FTUS43 KJKL 261013 AAB
TAFJKL
TAF AMD
KJKL 261013Z 2610/2706 VRB06KT 6SM -SN OVC035
     FM261500 33006KT 6SM -SHSN BR SCT008 BKN025 OVC035
     FM261800 30009KT 6SM -SHSN OVC025=

USA.gov is the U.S. government's official web portal to all federal, state and local government web resources and services.